East Sidney, New York
Current Conditions -  °F | °C
As of 10:53 PM on Thursday 18 Dec 2014 (Local Time) from KBGM Reporting Station
Overcast Overcast  
Wind Chill: 20°   Ceiling: 800
Heat Index: 28°   Visibility: 10mi
Dew Point: 25°   Wind: 8mph
Humidity: 88%   Direction: 310°NW
Pressure: 29.94"   Gusts: NA
Location:  42.3431°N, 75.1366°W
Report Text: KBGM 190353Z 31007KT 10SM OVC008 M02/M04 A2994 RMK AO2 CIG 006V014 SLP157 T10221039 $
Loading
Personal Weather Stations






























Interactive Weather Map New forecast layout! Learn more

10-Day Weather Forecast

Advertisements
Track Severe Weather on mobile